Fairview, Canada
Current Conditions -  °F | °C
As of 11:20 AM on Friday 28 Nov 2014 (Local Time) from CYPE Reporting Station
Blowing Snow Blowing Snow  
Wind Chill: -28°   Ceiling: 21000
Heat Index: -8°   Visibility: 10mi
Dew Point: -17°   Wind: 13mph
Humidity: 65%   Direction: 360°N
Pressure: 30.07"   Gusts: NA
Location:  56.07°N, 118.38°W
Report Text: CYPE 281820Z 36011KT 10SM DRSN SCT050 BKN210 M22/M27 A3007 RMK SC3CI4 SLP245
Loading
Personal Weather Stations






























Interactive Weather Map New forecast layout! Learn more

10-Day Weather Forecast

Advertisements
Track Severe Weather on mobile